Aviation Digital Data Service (ADDS)

Output produced by METARs form (0153 UTC 27 September 2016)
found at http://aviationweather.gov/adds/metars/
 
KBVI 262327Z 2700/2724 28008KT P6SM BKN025 
     FM270100 27007KT P6SM SCT120 
     FM270600 23006KT P6SM SKC 
     FM271600 23010G20KT P6SM SKC AMD NOT SKED 2702/2712